createdAt,value
2017-06-11T00:00:23.790Z,16.67
2017-06-11T00:01:25.216Z,16.83
2017-06-11T00:02:26.640Z,16.95
2017-06-11T00:03:28.071Z,16.96
2017-06-11T00:04:29.491Z,16.88
2017-06-11T00:05:30.920Z,17.10
2017-06-11T00:06:32.344Z,17.03
2017-06-11T00:07:33.779Z,16.89
2017-06-11T00:08:35.203Z,16.88
2017-06-11T00:09:36.636Z,16.77
2017-06-11T00:10:38.063Z,16.81
2017-06-11T00:11:39.503Z,16.86
2017-06-11T00:12:40.931Z,16.89
2017-06-11T00:13:43.180Z,16.88
2017-06-11T00:14:44.607Z,16.85
2017-06-11T00:15:46.038Z,16.80
2017-06-11T00:16:47.469Z,16.60
2017-06-11T00:17:48.891Z,16.49
2017-06-11T00:18:50.319Z,16.49
2017-06-11T00:19:51.742Z,16.53
2017-06-11T00:20:53.222Z,16.65
2017-06-11T00:21:54.651Z,16.45
2017-06-11T00:22:56.077Z,16.35
2017-06-11T00:23:57.511Z,16.34
2017-06-11T00:24:58.940Z,16.25
2017-06-11T00:26:00.369Z,16.11
2017-06-11T00:27:01.797Z,16.06
2017-06-11T00:28:03.227Z,16.14
2017-06-11T00:29:04.659Z,16.23
2017-06-11T00:30:06.089Z,16.30
2017-06-11T00:31:07.536Z,16.33
2017-06-11T00:32:08.959Z,16.31
2017-06-11T00:33:10.413Z,16.38
2017-06-11T00:34:11.820Z,16.45
2017-06-11T00:35:13.240Z,16.23
2017-06-11T00:36:14.667Z,16.27
2017-06-11T00:37:16.100Z,16.25
2017-06-11T00:38:17.517Z,16.20
2017-06-11T00:39:18.943Z,16.01
2017-06-11T00:40:20.391Z,16.30
2017-06-11T00:41:21.814Z,16.48
2017-06-11T00:42:23.244Z,16.49
2017-06-11T00:43:24.670Z,16.48
2017-06-11T00:45:28.488Z,16.42
2017-06-11T00:46:29.916Z,16.44
2017-06-11T00:47:31.346Z,16.34
2017-06-11T00:48:32.854Z,16.34
2017-06-11T00:49:34.279Z,16.48
2017-06-11T00:50:35.702Z,16.40
2017-06-11T00:51:37.127Z,16.35
2017-06-11T00:52:38.605Z,16.33
2017-06-11T00:53:40.040Z,16.20
2017-06-11T00:54:41.469Z,16.09
2017-06-11T00:55:42.903Z,16.06
2017-06-11T00:56:44.429Z,16.06
2017-06-11T00:57:45.855Z,16.11
2017-06-11T00:58:47.285Z,16.20
2017-06-11T00:59:48.721Z,16.30
2017-06-11T01:00:50.155Z,16.33
2017-06-11T01:01:51.589Z,16.26
2017-06-11T01:02:53.021Z,16.12
2017-06-11T01:03:54.509Z,16.16
2017-06-11T01:04:55.938Z,16.35
2017-06-11T01:05:57.368Z,16.52
2017-06-11T01:06:58.862Z,16.48
2017-06-11T01:08:00.301Z,16.30
2017-06-11T01:09:01.718Z,16.23
2017-06-11T01:10:03.147Z,16.23
2017-06-11T01:11:04.582Z,16.26
2017-06-11T01:12:06.006Z,16.11
2017-06-11T01:13:07.451Z,16.27
2017-06-11T01:14:08.885Z,16.25
2017-06-11T01:15:10.288Z,16.37
2017-06-11T01:16:11.717Z,16.35
2017-06-11T01:17:13.140Z,16.23
2017-06-11T01:18:14.568Z,16.12
2017-06-11T01:19:15.997Z,16.30
2017-06-11T01:20:17.422Z,16.48
2017-06-11T01:21:18.848Z,16.42
2017-06-11T01:22:20.274Z,16.23
2017-06-11T01:23:21.711Z,16.26
2017-06-11T01:24:23.136Z,16.23
2017-06-11T01:25:24.595Z,16.25
2017-06-11T01:26:25.989Z,16.12
2017-06-11T01:27:27.420Z,16.16
2017-06-11T01:28:28.843Z,16.27
2017-06-11T01:29:30.270Z,16.22
2017-06-11T01:30:31.712Z,16.15
2017-06-11T01:31:33.135Z,16.11
2017-06-11T01:32:34.555Z,16.07
2017-06-11T01:33:35.986Z,16.01
2017-06-11T01:34:37.418Z,16.15
2017-06-11T01:35:38.866Z,16.09
2017-06-11T01:36:40.276Z,16.26
2017-06-11T01:37:41.707Z,16.33
2017-06-11T01:38:43.129Z,16.40
2017-06-11T01:39:44.556Z,16.52
2017-06-11T01:40:45.985Z,16.41
2017-06-11T01:41:47.421Z,16.50
2017-06-11T01:42:48.847Z,16.34
2017-06-11T01:43:50.276Z,16.44
2017-06-11T01:44:51.702Z,16.50
2017-06-11T01:45:53.126Z,16.45
2017-06-11T01:46:54.555Z,16.48
2017-06-11T01:47:55.973Z,16.49
2017-06-11T01:48:57.397Z,16.52
2017-06-11T01:49:58.826Z,16.49
2017-06-11T01:51:00.251Z,16.56
2017-06-11T01:52:01.683Z,16.62
2017-06-11T01:53:03.108Z,16.55
2017-06-11T01:54:04.533Z,16.52
2017-06-11T01:55:05.954Z,16.33
2017-06-11T01:56:07.391Z,16.27
2017-06-11T01:57:08.816Z,16.06
2017-06-11T01:58:10.247Z,16.14
2017-06-11T01:59:11.670Z,16.30
2017-06-11T02:00:13.093Z,16.23
2017-06-11T02:01:14.521Z,16.38
2017-06-11T02:02:15.944Z,16.33
2017-06-11T02:03:17.402Z,16.22
2017-06-11T02:04:18.801Z,16.23
2017-06-11T02:05:20.222Z,16.26
2017-06-11T02:06:21.656Z,16.26
2017-06-11T02:07:23.083Z,16.33
2017-06-11T02:08:24.546Z,16.50
2017-06-11T02:09:25.962Z,16.49
2017-06-11T02:10:27.399Z,16.58
2017-06-11T02:11:28.822Z,16.53
2017-06-11T02:12:30.251Z,16.42
2017-06-11T02:13:31.678Z,16.35
2017-06-11T02:14:33.107Z,16.37
2017-06-11T02:15:34.538Z,16.45
2017-06-11T02:16:35.965Z,16.41
2017-06-11T02:17:37.397Z,16.37
2017-06-11T02:18:38.825Z,16.35
2017-06-11T02:19:40.262Z,16.41
2017-06-11T02:20:41.688Z,16.40
2017-06-11T02:21:43.114Z,16.50
2017-06-11T02:22:44.539Z,16.52
2017-06-11T02:23:45.967Z,16.56
2017-06-11T02:24:47.396Z,16.45
2017-06-11T02:25:48.821Z,16.37
2017-06-11T02:26:50.258Z,16.31
2017-06-11T02:27:51.675Z,16.37
2017-06-11T02:28:53.103Z,16.34
2017-06-11T02:29:54.531Z,16.45
2017-06-11T02:30:55.959Z,16.49
2017-06-11T02:31:57.388Z,16.58
2017-06-11T02:32:58.804Z,16.67
2017-06-11T02:34:00.236Z,16.60
2017-06-11T02:35:01.660Z,16.60
2017-06-11T02:36:03.089Z,16.68
2017-06-11T02:37:04.520Z,16.65
2017-06-11T02:38:05.951Z,16.67
2017-06-11T02:39:07.375Z,16.60
2017-06-11T02:40:08.810Z,16.74
2017-06-11T02:41:10.239Z,16.73
2017-06-11T02:42:11.668Z,16.83
2017-06-11T02:43:13.087Z,16.70
2017-06-11T02:44:14.521Z,16.90
2017-06-11T02:45:15.953Z,16.96
2017-06-11T02:46:17.382Z,16.95
2017-06-11T02:47:18.802Z,16.92
2017-06-11T02:48:20.239Z,16.98
2017-06-11T02:49:21.665Z,17.11
2017-06-11T02:50:23.104Z,17.17
2017-06-11T02:51:24.527Z,17.25
2017-06-11T02:52:25.947Z,17.10
2017-06-11T02:53:27.377Z,17.13
2017-06-11T02:54:28.808Z,17.14
2017-06-11T02:55:30.238Z,17.26
2017-06-11T02:56:31.681Z,17.46
2017-06-11T02:57:33.109Z,17.46
2017-06-11T02:58:34.542Z,17.46
2017-06-11T02:59:35.968Z,17.44
2017-06-11T03:00:37.393Z,17.57
2017-06-11T03:01:38.826Z,17.66
2017-06-11T03:02:40.254Z,17.73
2017-06-11T03:03:41.678Z,17.70
2017-06-11T03:04:43.113Z,17.66
2017-06-11T03:05:44.539Z,17.73
2017-06-11T03:06:47.157Z,17.73
2017-06-11T03:07:48.584Z,17.67
2017-06-11T03:08:50.010Z,17.71
2017-06-11T03:09:51.452Z,17.69
2017-06-11T03:10:52.871Z,17.67
2017-06-11T03:11:54.303Z,17.63
2017-06-11T03:12:55.736Z,17.62
2017-06-11T03:13:57.168Z,17.51
2017-06-11T03:14:58.594Z,17.36
2017-06-11T03:16:00.025Z,17.35
2017-06-11T03:17:01.456Z,17.35
2017-06-11T03:18:02.883Z,17.35
2017-06-11T03:19:04.307Z,17.44
2017-06-11T03:20:05.738Z,17.41
2017-06-11T03:21:07.153Z,17.46
2017-06-11T03:22:08.587Z,17.55
2017-06-11T03:23:10.021Z,17.55
2017-06-11T03:24:11.447Z,17.44
2017-06-11T03:25:12.868Z,17.50
2017-06-11T03:26:14.303Z,17.64
2017-06-11T03:27:15.732Z,17.67
2017-06-11T03:28:17.165Z,17.55
2017-06-11T03:29:18.591Z,17.66
2017-06-11T03:30:20.021Z,17.53
2017-06-11T03:31:21.450Z,17.32
2017-06-11T03:32:22.948Z,17.33
2017-06-11T03:33:24.384Z,17.26
2017-06-11T03:34:25.814Z,17.25
2017-06-11T03:35:27.239Z,17.26
2017-06-11T03:36:28.681Z,17.23
2017-06-11T03:37:30.111Z,17.18
2017-06-11T03:38:31.539Z,17.20
2017-06-11T03:39:32.971Z,17.14
2017-06-11T03:40:34.404Z,17.14
2017-06-11T03:41:35.827Z,17.08
2017-06-11T03:42:37.261Z,17.11
2017-06-11T03:43:38.690Z,17.06
2017-06-11T03:44:40.118Z,17.04
2017-06-11T03:45:41.550Z,17.18
2017-06-11T03:46:43.568Z,17.11
2017-06-11T03:47:44.997Z,17.08
2017-06-11T03:48:46.433Z,17.08
2017-06-11T03:49:47.858Z,17.22
2017-06-11T03:50:49.291Z,17.06
2017-06-11T03:51:51.695Z,17.18
2017-06-11T03:52:53.120Z,17.25
2017-06-11T03:53:54.548Z,17.28
2017-06-11T03:54:55.978Z,17.25
2017-06-11T03:55:57.411Z,17.30
2017-06-11T03:56:58.846Z,17.35
2017-06-11T03:58:00.281Z,17.23
2017-06-11T03:59:01.707Z,17.32
2017-06-11T04:00:03.137Z,17.20
2017-06-11T04:01:04.567Z,17.36
2017-06-11T04:02:06.001Z,17.36
2017-06-11T04:03:07.432Z,17.32
2017-06-11T04:04:08.857Z,17.47
2017-06-11T04:05:10.294Z,17.53
2017-06-11T04:06:11.726Z,17.59
2017-06-11T04:07:13.163Z,17.62
2017-06-11T04:08:14.593Z,17.64
2017-06-11T04:09:16.022Z,17.63
2017-06-11T04:10:17.456Z,17.69
2017-06-11T04:11:18.876Z,17.71
2017-06-11T04:12:20.308Z,17.67
2017-06-11T04:13:21.738Z,17.74
2017-06-11T04:14:23.165Z,17.79
2017-06-11T04:15:24.598Z,17.71
2017-06-11T04:16:26.024Z,17.71
2017-06-11T04:17:27.455Z,17.69
2017-06-11T04:18:28.894Z,17.70
2017-06-11T04:19:30.327Z,17.73
2017-06-11T04:20:31.757Z,17.70
2017-06-11T04:21:33.188Z,17.71
2017-06-11T04:22:34.632Z,17.87
2017-06-11T04:23:36.055Z,18.00
2017-06-11T04:24:37.483Z,17.97
2017-06-11T04:25:38.920Z,18.02
2017-06-11T04:26:40.357Z,18.06
2017-06-11T04:27:41.794Z,18.13
2017-06-11T04:28:43.217Z,18.18
2017-06-11T04:29:44.645Z,18.10
2017-06-11T04:30:46.081Z,18.17
2017-06-11T04:31:47.505Z,18.24
2017-06-11T04:32:48.942Z,18.28
2017-06-11T04:33:50.368Z,18.34
2017-06-11T04:34:51.799Z,18.33
2017-06-11T04:35:53.233Z,18.42
2017-06-11T04:36:54.662Z,18.37
2017-06-11T04:37:57.050Z,18.42
2017-06-11T04:38:58.478Z,18.43
2017-06-11T04:39:59.912Z,18.57
2017-06-11T04:41:01.342Z,18.64
2017-06-11T04:42:02.778Z,18.73
2017-06-11T04:43:04.213Z,18.77
2017-06-11T04:44:05.654Z,18.83
2017-06-11T04:45:07.079Z,18.80
2017-06-11T04:46:08.515Z,18.80
2017-06-11T04:47:09.950Z,18.90
2017-06-11T04:48:11.375Z,18.90
2017-06-11T04:49:12.819Z,18.97
2017-06-11T04:50:14.247Z,18.95
2017-06-11T04:51:15.677Z,18.91
2017-06-11T04:52:17.108Z,18.92
2017-06-11T04:53:18.552Z,18.86
2017-06-11T04:54:19.978Z,19.01
2017-06-11T04:55:21.413Z,18.95
2017-06-11T04:56:22.938Z,19.01
2017-06-11T04:57:24.372Z,18.94
2017-06-11T04:58:25.801Z,19.08
2017-06-11T04:59:27.236Z,19.01
2017-06-11T05:00:28.670Z,18.95
2017-06-11T05:01:30.100Z,19.10
2017-06-11T05:02:31.525Z,18.97
2017-06-11T05:03:32.957Z,18.95
2017-06-11T05:04:34.394Z,19.10
2017-06-11T05:05:35.837Z,19.14
2017-06-11T05:06:37.270Z,19.05
2017-06-11T05:07:38.693Z,19.14
2017-06-11T05:08:40.130Z,19.05
2017-06-11T05:09:41.559Z,19.10
2017-06-11T05:10:42.990Z,19.28
2017-06-11T05:11:44.421Z,19.21
2017-06-11T05:12:45.859Z,19.28
2017-06-11T05:13:47.295Z,19.20
2017-06-11T05:14:48.733Z,19.24
2017-06-11T05:15:50.158Z,19.31
2017-06-11T05:16:51.581Z,19.28
2017-06-11T05:17:53.017Z,19.36
2017-06-11T05:18:54.451Z,19.40
2017-06-11T05:19:55.880Z,19.46
2017-06-11T05:20:57.310Z,19.38
2017-06-11T05:21:58.745Z,19.47
2017-06-11T05:23:00.182Z,19.51
2017-06-11T05:24:01.619Z,19.53
2017-06-11T05:25:03.047Z,19.48
2017-06-11T05:26:04.480Z,19.60
2017-06-11T05:27:05.917Z,19.53
2017-06-11T05:28:07.345Z,19.63
2017-06-11T05:29:08.774Z,19.63
2017-06-11T05:30:10.207Z,19.63
2017-06-11T05:31:11.629Z,19.72
2017-06-11T05:32:13.057Z,19.75
2017-06-11T05:33:14.520Z,19.90
2017-06-11T05:34:15.928Z,19.94
2017-06-11T05:35:17.358Z,19.88
2017-06-11T05:36:18.787Z,19.86
2017-06-11T05:37:20.216Z,19.97
2017-06-11T05:38:21.654Z,20.03
2017-06-11T05:39:23.088Z,20.06
2017-06-11T05:40:24.517Z,20.21
2017-06-11T05:41:25.943Z,20.05
2017-06-11T05:42:27.380Z,20.08
2017-06-11T05:43:28.830Z,20.16
2017-06-11T05:44:30.259Z,20.06
2017-06-11T05:45:31.688Z,20.03
2017-06-11T05:46:33.116Z,20.28
2017-06-11T05:47:34.550Z,20.20
2017-06-11T05:48:35.980Z,20.25
2017-06-11T05:49:38.176Z,20.25
2017-06-11T05:50:39.609Z,20.23
2017-06-11T05:51:41.038Z,20.27
2017-06-11T05:52:42.465Z,20.24
2017-06-11T05:53:43.903Z,20.28
2017-06-11T05:54:45.332Z,20.35
2017-06-11T05:55:46.766Z,20.43
2017-06-11T05:56:48.197Z,20.53
2017-06-11T05:57:49.634Z,20.53
2017-06-11T05:58:51.075Z,20.51
2017-06-11T05:59:52.502Z,20.65
2017-06-11T06:00:53.938Z,20.61
2017-06-11T06:01:55.367Z,20.68
2017-06-11T06:02:56.801Z,20.66
2017-06-11T06:03:58.237Z,20.68
2017-06-11T06:04:59.668Z,20.71
2017-06-11T06:06:01.109Z,20.74
2017-06-11T06:07:02.535Z,20.68
2017-06-11T06:08:03.971Z,20.56
2017-06-11T06:09:05.412Z,20.69
2017-06-11T06:10:06.838Z,20.71
2017-06-11T06:11:08.272Z,20.69
2017-06-11T06:12:09.700Z,20.76
2017-06-11T06:13:11.131Z,20.69
2017-06-11T06:14:12.564Z,20.68
2017-06-11T06:15:13.993Z,20.64
2017-06-11T06:16:15.424Z,20.65
2017-06-11T06:17:16.851Z,20.72
2017-06-11T06:18:18.286Z,20.64
2017-06-11T06:19:19.720Z,20.72
2017-06-11T06:20:21.153Z,20.83
2017-06-11T06:21:22.584Z,20.80
2017-06-11T06:22:24.009Z,20.89
2017-06-11T06:23:25.440Z,20.84
2017-06-11T06:24:26.867Z,20.76
2017-06-11T06:25:28.301Z,20.81
2017-06-11T06:26:29.726Z,20.87
2017-06-11T06:27:31.162Z,20.90
2017-06-11T06:28:32.588Z,20.98
2017-06-11T06:29:34.029Z,20.91
2017-06-11T06:30:35.461Z,20.96
2017-06-11T06:31:36.891Z,20.95
2017-06-11T06:32:38.320Z,20.98
2017-06-11T06:33:39.751Z,20.98
2017-06-11T06:34:41.188Z,21.05
2017-06-11T06:35:42.616Z,21.17
2017-06-11T06:36:44.050Z,21.13
2017-06-11T06:37:45.486Z,21.13
2017-06-11T06:38:46.913Z,21.14
2017-06-11T06:39:48.348Z,21.14
2017-06-11T06:40:49.790Z,21.21
2017-06-11T06:41:51.223Z,21.29
2017-06-11T06:42:52.656Z,21.24
2017-06-11T06:43:54.093Z,21.35
2017-06-11T06:44:55.526Z,21.36
2017-06-11T06:45:56.955Z,21.45
2017-06-11T06:46:58.391Z,21.44
2017-06-11T06:47:59.820Z,21.44
2017-06-11T06:49:01.252Z,21.41
2017-06-11T06:50:02.687Z,21.41
2017-06-11T06:51:04.117Z,21.30
2017-06-11T06:52:05.552Z,21.56
2017-06-11T06:53:06.992Z,21.51
2017-06-11T06:54:08.433Z,21.48
2017-06-11T06:55:09.870Z,21.50
2017-06-11T06:56:11.301Z,21.59
2017-06-11T06:57:12.730Z,21.61
2017-06-11T06:58:14.168Z,21.54
2017-06-11T06:59:15.602Z,21.59
2017-06-11T07:00:17.049Z,21.63
2017-06-11T07:01:18.482Z,21.66
2017-06-11T07:02:19.935Z,21.79
2017-06-11T07:03:21.364Z,21.76
2017-06-11T07:04:22.793Z,21.81
2017-06-11T07:05:24.310Z,21.85
2017-06-11T07:06:25.755Z,21.94
2017-06-11T07:07:27.191Z,21.98
2017-06-11T07:08:28.619Z,22.01
2017-06-11T07:09:30.057Z,22.16
2017-06-11T07:10:31.488Z,21.98
2017-06-11T07:11:32.921Z,22.12
2017-06-11T07:12:34.366Z,22.09
2017-06-11T07:13:35.803Z,22.10
2017-06-11T07:14:37.245Z,21.97
2017-06-11T07:15:38.688Z,21.97
2017-06-11T07:16:40.124Z,21.95
2017-06-11T07:17:41.553Z,22.04
2017-06-11T07:18:42.990Z,22.12
2017-06-11T07:19:44.434Z,21.97
2017-06-11T07:20:45.870Z,22.10
2017-06-11T07:21:47.300Z,22.19
2017-06-11T07:22:48.741Z,22.25
2017-06-11T07:23:50.190Z,22.28
2017-06-11T07:24:51.624Z,22.27
2017-06-11T07:25:53.057Z,22.19
2017-06-11T07:26:54.491Z,22.25
2017-06-11T07:27:55.926Z,22.20
2017-06-11T07:28:57.359Z,22.22
2017-06-11T07:29:58.795Z,22.43
2017-06-11T07:31:00.235Z,22.44
2017-06-11T07:32:01.664Z,22.46
2017-06-11T07:33:03.102Z,22.38
2017-06-11T07:34:04.529Z,22.44
2017-06-11T07:35:05.972Z,22.50
2017-06-11T07:36:07.409Z,22.50
2017-06-11T07:37:08.843Z,22.59
2017-06-11T07:38:10.279Z,22.72
2017-06-11T07:39:11.712Z,22.82
2017-06-11T07:40:13.154Z,22.80
2017-06-11T07:41:14.581Z,22.80
2017-06-11T07:42:16.021Z,22.87
2017-06-11T07:43:17.457Z,22.89
2017-06-11T07:44:18.897Z,22.89
2017-06-11T07:45:20.345Z,22.92
2017-06-11T07:46:21.781Z,22.90
2017-06-11T07:47:23.217Z,22.87
2017-06-11T07:48:24.647Z,22.82
2017-06-11T07:49:26.078Z,22.90
2017-06-11T07:50:27.521Z,22.93
2017-06-11T07:51:28.955Z,23.08
2017-06-11T07:52:30.390Z,23.04
2017-06-11T07:53:31.825Z,23.12
2017-06-11T07:54:33.262Z,23.05
2017-06-11T07:55:34.699Z,23.19
2017-06-11T07:56:36.157Z,23.20
2017-06-11T07:57:37.561Z,23.19
2017-06-11T07:58:39.004Z,23.14
2017-06-11T07:59:40.431Z,23.22
2017-06-11T08:00:41.860Z,23.35
2017-06-11T08:01:43.302Z,23.23
2017-06-11T08:02:44.739Z,23.26
2017-06-11T08:03:46.179Z,23.29
2017-06-11T08:04:47.614Z,23.22
2017-06-11T08:05:49.052Z,23.23
2017-06-11T08:06:50.482Z,23.22
2017-06-11T08:07:51.923Z,23.29
2017-06-11T08:08:53.358Z,23.39
2017-06-11T08:09:54.795Z,23.34
2017-06-11T08:10:56.230Z,23.23
2017-06-11T08:11:57.658Z,23.20
2017-06-11T08:12:59.096Z,23.23
2017-06-11T08:14:00.534Z,23.19
2017-06-11T08:15:01.965Z,23.20
2017-06-11T08:16:03.409Z,23.27
2017-06-11T08:17:04.838Z,22.92
2017-06-11T08:18:06.270Z,23.08
2017-06-11T08:19:07.729Z,23.24
2017-06-11T08:20:09.128Z,23.31
2017-06-11T08:21:10.564Z,23.17
2017-06-11T08:22:11.995Z,23.23
2017-06-11T08:23:13.426Z,23.34
2017-06-11T08:24:14.857Z,23.27
2017-06-11T08:25:16.287Z,23.53
2017-06-11T08:26:17.730Z,23.65
2017-06-11T08:27:19.171Z,23.31
2017-06-11T08:28:20.608Z,23.45
2017-06-11T08:29:22.037Z,23.62
2017-06-11T08:30:23.484Z,23.70
2017-06-11T08:31:24.921Z,23.70
2017-06-11T08:32:26.361Z,23.75
2017-06-11T08:33:27.795Z,23.85
2017-06-11T08:34:29.231Z,23.97
2017-06-11T08:35:30.673Z,24.05
2017-06-11T08:36:32.098Z,23.98
2017-06-11T08:37:33.540Z,24.22
2017-06-11T08:38:34.979Z,24.20
2017-06-11T08:39:36.421Z,24.08
2017-06-11T08:40:37.892Z,24.08
2017-06-11T08:41:39.314Z,24.29
2017-06-11T08:42:40.755Z,24.27
2017-06-11T08:43:42.181Z,24.50
2017-06-11T08:44:43.622Z,24.57
2017-06-11T08:45:45.063Z,24.82
2017-06-11T08:46:46.490Z,24.87
2017-06-11T08:47:47.931Z,24.92
2017-06-11T08:48:49.372Z,24.94
2017-06-11T08:49:50.807Z,24.71
2017-06-11T08:50:52.252Z,24.80
2017-06-11T08:51:53.684Z,24.69
2017-06-11T08:52:55.124Z,24.54
2017-06-11T08:53:56.576Z,24.71
2017-06-11T08:54:58.011Z,24.85
2017-06-11T08:55:59.451Z,25.06
2017-06-11T08:57:00.895Z,25.10
2017-06-11T08:58:02.328Z,24.95
2017-06-11T08:59:03.757Z,24.92
2017-06-11T09:00:05.202Z,25.00
2017-06-11T09:01:06.673Z,24.95
2017-06-11T09:02:08.081Z,25.07
2017-06-11T09:03:09.519Z,25.09
2017-06-11T09:04:10.954Z,25.12
2017-06-11T09:05:12.395Z,25.12
2017-06-11T09:06:13.834Z,25.12
2017-06-11T09:07:15.269Z,25.00
2017-06-11T09:08:16.713Z,24.85
2017-06-11T09:09:18.149Z,24.95
2017-06-11T09:10:19.585Z,25.37
2017-06-11T09:11:21.023Z,25.71
2017-06-11T09:12:22.485Z,25.87
2017-06-11T09:13:23.927Z,25.71
2017-06-11T09:14:25.364Z,25.82
2017-06-11T09:15:26.803Z,25.82
2017-06-11T09:16:28.258Z,25.71
2017-06-11T09:17:29.701Z,25.79
2017-06-11T09:18:31.140Z,25.89
2017-06-11T09:19:32.578Z,25.93
2017-06-11T09:20:34.017Z,25.79
2017-06-11T09:21:35.465Z,25.62
2017-06-11T09:22:36.902Z,25.94
2017-06-11T09:23:38.365Z,26.17
2017-06-11T09:24:39.799Z,26.22
2017-06-11T09:25:41.234Z,26.28
2017-06-11T09:26:42.670Z,26.28
2017-06-11T09:27:44.112Z,26.44
2017-06-11T09:28:45.549Z,26.58
2017-06-11T09:29:47.022Z,26.50
2017-06-11T09:30:48.462Z,26.46
2017-06-11T09:31:49.909Z,26.42
2017-06-11T09:32:51.351Z,26.31
2017-06-11T09:33:52.784Z,26.36
2017-06-11T09:34:54.214Z,26.25
2017-06-11T09:35:55.659Z,26.27
2017-06-11T09:36:57.098Z,26.11
2017-06-11T09:37:58.544Z,26.40
2017-06-11T09:38:59.984Z,26.47
2017-06-11T09:40:01.415Z,26.43
2017-06-11T09:41:02.863Z,26.20
2017-06-11T09:42:04.329Z,26.21
2017-06-11T09:43:05.770Z,26.18
2017-06-11T09:44:07.209Z,26.43
2017-06-11T09:45:08.664Z,26.29
2017-06-11T09:46:10.096Z,26.31
2017-06-11T09:47:11.538Z,26.42
2017-06-11T09:48:12.980Z,26.46
2017-06-11T09:49:14.418Z,26.43
2017-06-11T09:50:15.852Z,26.54
2017-06-11T09:51:17.290Z,26.39
2017-06-11T09:52:18.739Z,26.36
2017-06-11T09:53:20.182Z,26.55
2017-06-11T09:54:21.621Z,26.73
2017-06-11T09:55:23.080Z,26.62
2017-06-11T09:56:24.526Z,26.68
2017-06-11T09:57:25.961Z,26.77
2017-06-11T09:58:27.399Z,26.46
2017-06-11T09:59:28.843Z,26.61
2017-06-11T10:00:30.283Z,26.52
2017-06-11T10:01:31.726Z,26.36
2017-06-11T10:02:33.174Z,26.42
2017-06-11T10:03:34.616Z,26.40
2017-06-11T10:04:36.056Z,26.61
2017-06-11T10:05:37.490Z,26.77
2017-06-11T10:06:38.936Z,26.67
2017-06-11T10:07:40.370Z,26.47
2017-06-11T10:08:41.810Z,26.54
2017-06-11T10:09:43.244Z,26.68
2017-06-11T10:10:44.740Z,26.50
2017-06-11T10:11:46.184Z,26.49
2017-06-11T10:12:47.619Z,26.69
2017-06-11T10:13:49.063Z,26.96
2017-06-11T10:14:50.506Z,26.76
2017-06-11T10:15:51.942Z,26.94
2017-06-11T10:16:53.378Z,26.98
2017-06-11T10:17:54.837Z,27.11
2017-06-11T10:18:56.275Z,27.21
2017-06-11T10:19:57.711Z,27.06
2017-06-11T10:20:59.149Z,27.21
2017-06-11T10:22:00.593Z,27.57
2017-06-11T10:23:02.039Z,27.61
2017-06-11T10:24:03.482Z,27.73
2017-06-11T10:25:04.924Z,27.71
2017-06-11T10:26:06.375Z,27.85
2017-06-11T10:27:07.814Z,27.79
2017-06-11T10:28:09.256Z,28.10
2017-06-11T10:29:10.697Z,28.03
2017-06-11T10:30:12.144Z,28.16
2017-06-11T10:31:15.065Z,28.03
2017-06-11T10:32:15.624Z,27.95
2017-06-11T10:33:17.050Z,28.17
2017-06-11T10:34:19.763Z,28.33
2017-06-11T10:35:21.198Z,28.46
2017-06-11T10:36:22.645Z,28.19
2017-06-11T10:37:24.130Z,27.91
2017-06-11T10:38:25.565Z,27.66
2017-06-11T10:39:27.089Z,27.89
2017-06-11T10:40:28.526Z,28.14
2017-06-11T10:41:29.966Z,27.94
2017-06-11T10:42:31.410Z,28.04
2017-06-11T10:43:32.857Z,28.09
2017-06-11T10:44:34.344Z,28.14
2017-06-11T10:45:35.778Z,28.32
2017-06-11T10:46:37.221Z,28.62
2017-06-11T10:47:38.664Z,28.35
2017-06-11T10:48:40.108Z,28.59
2017-06-11T10:49:41.555Z,28.69
2017-06-11T10:50:42.993Z,28.68
2017-06-11T10:51:44.463Z,28.63
2017-06-11T10:52:45.909Z,28.85
2017-06-11T10:53:47.352Z,28.60
2017-06-11T10:54:48.783Z,28.82
2017-06-11T10:55:50.242Z,28.68
2017-06-11T10:56:51.680Z,28.88
2017-06-11T10:57:53.146Z,29.10
2017-06-11T10:58:54.561Z,29.25
2017-06-11T10:59:56.004Z,29.34
2017-06-11T11:00:57.441Z,29.40
2017-06-11T11:01:58.880Z,29.01
2017-06-11T11:03:00.317Z,29.19
2017-06-11T11:04:01.763Z,29.13
2017-06-11T11:05:03.199Z,29.34
2017-06-11T11:06:04.635Z,29.28
2017-06-11T11:07:06.080Z,29.52
2017-06-11T11:08:07.522Z,29.35
2017-06-11T11:09:08.966Z,29.57
2017-06-11T11:10:10.441Z,29.62
2017-06-11T11:11:11.882Z,29.60
2017-06-11T11:12:13.321Z,29.52
2017-06-11T11:13:14.759Z,29.50
2017-06-11T11:14:16.211Z,29.43
2017-06-11T11:15:17.650Z,29.18
2017-06-11T11:16:19.089Z,29.03
2017-06-11T11:17:20.529Z,28.95
2017-06-11T11:18:21.970Z,28.81
2017-06-11T11:19:25.798Z,29.37
2017-06-11T11:20:27.236Z,29.66
2017-06-11T11:21:28.683Z,29.52
2017-06-11T11:22:30.122Z,29.31
2017-06-11T11:23:31.561Z,29.45
2017-06-11T11:24:32.997Z,29.49
2017-06-11T11:25:34.438Z,29.55
2017-06-11T11:26:35.880Z,29.87
2017-06-11T11:27:37.321Z,30.14
2017-06-11T11:28:38.763Z,30.30
2017-06-11T11:29:40.200Z,29.97
2017-06-11T11:30:41.641Z,30.14
2017-06-11T11:31:43.081Z,29.92
2017-06-11T11:32:44.524Z,29.84
2017-06-11T11:33:45.972Z,29.99
2017-06-11T11:34:47.411Z,30.07
2017-06-11T11:35:48.855Z,30.47
2017-06-11T11:36:50.291Z,30.49
2017-06-11T11:37:51.742Z,30.50
2017-06-11T11:38:53.181Z,30.43
2017-06-11T11:39:54.626Z,30.27
2017-06-11T11:40:56.071Z,30.67
2017-06-11T11:41:57.527Z,30.53
2017-06-11T11:42:59.004Z,30.52
2017-06-11T11:44:00.608Z,30.36
2017-06-11T11:45:02.050Z,30.11
2017-06-11T11:46:03.490Z,30.19
2017-06-11T11:47:04.929Z,30.16
2017-06-11T11:48:06.361Z,30.56
2017-06-11T11:49:07.808Z,30.74
2017-06-11T11:50:09.252Z,30.64
2017-06-11T11:51:10.693Z,30.27
2017-06-11T11:52:12.123Z,30.50
2017-06-11T11:53:13.590Z,30.30
2017-06-11T11:54:15.060Z,29.84
2017-06-11T11:55:16.480Z,29.62
2017-06-11T11:56:17.926Z,29.74
2017-06-11T11:57:19.376Z,29.96
2017-06-11T11:58:20.813Z,30.00
2017-06-11T11:59:22.252Z,30.00
2017-06-11T12:00:23.695Z,30.05
2017-06-11T12:01:25.150Z,29.89
2017-06-11T12:02:26.590Z,29.50
2017-06-11T12:03:28.033Z,29.55
2017-06-11T12:04:29.476Z,29.57
2017-06-11T12:05:30.913Z,29.59
2017-06-11T12:06:32.352Z,29.49
2017-06-11T12:07:33.789Z,29.16
2017-06-11T12:08:35.230Z,29.10
2017-06-11T12:09:36.681Z,29.11
2017-06-11T12:10:38.110Z,29.13
2017-06-11T12:11:39.556Z,29.22
2017-06-11T12:12:40.993Z,29.41
2017-06-11T12:13:42.438Z,29.94
2017-06-11T12:14:44.388Z,29.75
2017-06-11T12:15:45.828Z,29.71
2017-06-11T12:16:47.276Z,29.86
2017-06-11T12:17:48.714Z,30.14
2017-06-11T12:18:50.172Z,30.16
2017-06-11T12:19:51.616Z,30.23
2017-06-11T12:20:53.069Z,30.08
2017-06-11T12:21:54.512Z,29.71
2017-06-11T12:22:55.952Z,29.50
2017-06-11T12:23:57.400Z,29.62
2017-06-11T12:24:58.832Z,29.89
2017-06-11T12:26:00.280Z,29.97
2017-06-11T12:27:01.718Z,29.82
2017-06-11T12:28:03.160Z,29.81
2017-06-11T12:29:04.608Z,29.63
2017-06-11T12:30:06.053Z,29.79
2017-06-11T12:31:07.504Z,29.53
2017-06-11T12:32:08.946Z,29.41
2017-06-11T12:33:10.385Z,29.44
2017-06-11T12:34:11.824Z,29.37
2017-06-11T12:35:13.268Z,29.19
2017-06-11T12:36:14.708Z,29.00
2017-06-11T12:37:16.154Z,29.06
2017-06-11T12:38:17.586Z,29.00
2017-06-11T12:39:19.025Z,28.91
2017-06-11T12:40:20.462Z,28.84
2017-06-11T12:41:21.898Z,28.68
2017-06-11T12:42:23.341Z,28.69
2017-06-11T12:43:24.785Z,28.25
2017-06-11T12:44:26.232Z,28.09
2017-06-11T12:45:27.673Z,28.19
2017-06-11T12:46:29.114Z,28.29
2017-06-11T12:47:30.551Z,28.10
2017-06-11T12:48:31.990Z,28.10
2017-06-11T12:49:33.430Z,27.89
2017-06-11T12:50:34.912Z,27.91
2017-06-11T12:51:36.352Z,28.03
2017-06-11T12:52:37.786Z,27.84
2017-06-11T12:53:39.241Z,27.88
2017-06-11T12:54:40.755Z,27.84
2017-06-11T12:55:42.202Z,27.73
2017-06-11T12:56:43.698Z,27.73
2017-06-11T12:57:45.272Z,27.82
2017-06-11T12:58:46.670Z,28.04
2017-06-11T12:59:48.110Z,28.01
2017-06-11T13:00:49.567Z,27.98
2017-06-11T13:01:51.006Z,28.07
2017-06-11T13:02:52.454Z,27.96
2017-06-11T13:03:53.898Z,27.94
2017-06-11T13:04:55.344Z,28.06
2017-06-11T13:05:56.785Z,28.06
2017-06-11T13:06:58.230Z,28.07
2017-06-11T13:07:59.668Z,28.13
2017-06-11T13:09:01.108Z,28.29
2017-06-11T13:10:02.552Z,28.41
2017-06-11T13:11:03.991Z,28.32
2017-06-11T13:12:05.432Z,28.41